QTR726 KORD-OTHH
Flight info
| Callsign | QTR726 |
|---|---|
| Flight time | N/A |
| Altitude | 31000 |
| Route | RAYNR DCT BRTMN DCT TAAYZ DCT SQUIB DCT HAUCK DCT HRRSH DCT HOCKE DCT ROSVO DCT IGSAS DCT 5230N06000W/N0480F330 DCT LOMSI/M083F330 DCT 55N050W 56N040W 57N030W 57N020W DCT PIKIL DCT SOVED/N0476F350 DCT KUGUR DCT BELZU DCT MASOP DCT BELOX L603 DOLAS DCT NAVPI DCT OTMEC DCT TIVUN DCT ESAMA DCT OSBIT DCT BARSU DCT MOOCE DCT RUDNO DCT DEXIT DCT ARSIN DCT BABIT DCT OKLOP/N0470F370 DCT NISVA DCT RODIP DCT BELGI UT38 VESAR L620 BALMA UR655 CAK UN310 LATEB N310 BASEM R785 RASLI P559 TRF R23 NEVOL N318 TAMRO T503 LABIS L604 KFA M691 LADNA N318 HAYYA |
| Aircraft | A346/H-SDE2E3FGHIJ3J4J5M1RWXY/LB1D1 |
Departure
| Time | 2026-05-06 16:45 |
|---|---|
| Airport | Chicago O'Hare International Airport (KORD) |
Arrival
| Time | N/A |
|---|---|
| Airport | Hamad International Airport (OTHH) |
| Time | Latitude | Longitude | Altitude | Speed | Heading |
|---|---|---|---|---|---|
| 2026-05-06 16:22 | 41.97333 | -87.89086 | 677 ft | 0 kts | 0° |
| 2026-05-06 16:32 | 41.97332 | -87.89086 | 677 ft | 2 kts | 0° |
| 2026-05-06 16:32 | 41.97307 | -87.89086 | 671 ft | 2 kts | 0° |
| 2026-05-06 16:32 | 41.97286 | -87.89082 | 673 ft | 4 kts | 333° |
| 2026-05-06 16:32 | 41.97274 | -87.89067 | 670 ft | 4 kts | 294° |
| 2026-05-06 16:33 | 41.97269 | -87.89036 | 672 ft | 4 kts | 272° |
| 2026-05-06 16:33 | 41.97269 | -87.89000 | 670 ft | 4 kts | 266° |
| 2026-05-06 16:33 | 41.97270 | -87.88963 | 673 ft | 4 kts | 269° |
| 2026-05-06 16:34 | 41.97270 | -87.88956 | 676 ft | 0 kts | 270° |
| 2026-05-06 16:34 | 41.97270 | -87.88957 | 676 ft | 0 kts | 270° |
| 2026-05-06 16:38 | 41.97270 | -87.88959 | 675 ft | 2 kts | 269° |
| 2026-05-06 16:38 | 41.97269 | -87.89005 | 677 ft | 10 kts | 268° |
| 2026-05-06 16:39 | 41.97268 | -87.89118 | 677 ft | 12 kts | 270° |
| 2026-05-06 16:39 | 41.97268 | -87.89230 | 677 ft | 0 kts | 270° |
| 2026-05-06 16:40 | 41.97268 | -87.89240 | 677 ft | 2 kts | 270° |
| 2026-05-06 16:40 | 41.97268 | -87.89267 | 677 ft | 4 kts | 271° |
| 2026-05-06 16:40 | 41.97285 | -87.89307 | 677 ft | 9 kts | 335° |
| 2026-05-06 16:40 | 41.97328 | -87.89354 | 677 ft | 10 kts | 297° |
| 2026-05-06 16:41 | 41.97383 | -87.89425 | 673 ft | 14 kts | 341° |
| 2026-05-06 16:41 | 41.97469 | -87.89437 | 675 ft | 13 kts | 0° |
| 2026-05-06 16:41 | 41.97560 | -87.89435 | 676 ft | 13 kts | 1° |
| 2026-05-06 16:41 | 41.97654 | -87.89433 | 674 ft | 14 kts | 360° |
| 2026-05-06 16:42 | 41.97749 | -87.89433 | 676 ft | 12 kts | 360° |
| 2026-05-06 16:42 | 41.97834 | -87.89433 | 676 ft | 11 kts | 0° |
| 2026-05-06 16:42 | 41.97908 | -87.89405 | 676 ft | 12 kts | 34° |
| 2026-05-06 16:42 | 41.97972 | -87.89316 | 677 ft | 13 kts | 50° |
| 2026-05-06 16:43 | 41.98032 | -87.89218 | 677 ft | 14 kts | 50° |
| 2026-05-06 16:43 | 41.98094 | -87.89117 | 677 ft | 14 kts | 50° |
| 2026-05-06 16:43 | 41.98158 | -87.89014 | 675 ft | 14 kts | 49° |
| 2026-05-06 16:43 | 41.98217 | -87.88943 | 677 ft | 9 kts | 29° |
| 2026-05-06 16:44 | 41.98285 | -87.88916 | 677 ft | 11 kts | 5° |
| 2026-05-06 16:44 | 41.98364 | -87.88938 | 675 ft | 13 kts | 318° |
| 2026-05-06 16:44 | 41.98390 | -87.89092 | 676 ft | 26 kts | 270° |
| 2026-05-06 16:44 | 41.98389 | -87.89521 | 679 ft | 73 kts | 270° |
| 2026-05-06 16:45 | 41.98389 | -87.90488 | 675 ft | 129 kts | 270° |
| 2026-05-06 16:45 | 41.98388 | -87.91914 | 678 ft | 175 kts | 270° |
| 2026-05-06 16:45 | 41.98397 | -87.93628 | 1021 ft | 184 kts | 270° |
| 2026-05-06 16:45 | 41.98420 | -87.95311 | 1723 ft | 179 kts | 271° |
| 2026-05-06 16:46 | 41.98412 | -87.96983 | 2266 ft | 182 kts | 270° |
| 2026-05-06 16:46 | 41.98499 | -87.98700 | 2676 ft | 187 kts | 294° |
| 2026-05-06 16:46 | 41.99402 | -87.99957 | 2855 ft | 199 kts | 340° |
| 2026-05-06 16:46 | 42.00813 | -87.99960 | 3088 ft | 216 kts | 18° |
| 2026-05-06 16:47 | 42.02216 | -87.99073 | 3337 ft | 230 kts | 23° |
| 2026-05-06 16:47 | 42.03707 | -87.98126 | 3597 ft | 243 kts | 21° |
| 2026-05-06 16:47 | 42.05295 | -87.97172 | 3896 ft | 257 kts | 21° |
| 2026-05-06 16:47 | 42.06986 | -87.96193 | 4179 ft | 271 kts | 20° |
| 2026-05-06 16:48 | 42.08759 | -87.95183 | 4598 ft | 280 kts | 21° |
| 2026-05-06 16:48 | 42.10565 | -87.94162 | 5212 ft | 282 kts | 20° |
| 2026-05-06 16:48 | 42.12381 | -87.93137 | 5835 ft | 284 kts | 20° |
| 2026-05-06 16:48 | 42.14219 | -87.92101 | 6380 ft | 288 kts | 19° |
| 2026-05-06 16:49 | 42.16061 | -87.91067 | 6907 ft | 292 kts | 19° |
| 2026-05-06 16:49 | 42.17945 | -87.90011 | 7468 ft | 295 kts | 19° |
| 2026-05-06 16:49 | 42.19850 | -87.88943 | 7990 ft | 298 kts | 18° |
| 2026-05-06 16:49 | 42.21770 | -87.87865 | 8508 ft | 301 kts | 18° |
| 2026-05-06 16:50 | 42.23714 | -87.86775 | 9026 ft | 303 kts | 18° |
| 2026-05-06 16:50 | 42.25667 | -87.85678 | 9532 ft | 305 kts | 18° |
| 2026-05-06 16:50 | 42.27638 | -87.84571 | 9986 ft | 308 kts | 18° |
| 2026-05-06 16:50 | 42.28951 | -87.83834 | 10246 ft | 311 kts | 17° |
| 2026-05-06 16:51 | 42.31769 | -87.82659 | 10554 ft | 323 kts | 6° |
| 2026-05-06 16:51 | 42.34021 | -87.82219 | 10779 ft | 332 kts | 1° |
| 2026-05-06 16:51 | 42.36373 | -87.81923 | 11005 ft | 343 kts | 360° |
| 2026-05-06 16:51 | 42.38792 | -87.81639 | 11246 ft | 355 kts | 360° |
| 2026-05-06 16:52 | 42.41293 | -87.81336 | 11463 ft | 367 kts | 0° |
| 2026-05-06 16:52 | 42.43873 | -87.81015 | 11728 ft | 377 kts | 0° |
| 2026-05-06 16:52 | 42.46499 | -87.80741 | 12190 ft | 379 kts | 357° |
| 2026-05-06 16:52 | 42.49138 | -87.80688 | 12693 ft | 380 kts | 353° |
| 2026-05-06 16:53 | 42.51795 | -87.80820 | 13189 ft | 383 kts | 351° |
| 2026-05-06 16:53 | 42.54468 | -87.80994 | 13680 ft | 386 kts | 351° |
| 2026-05-06 16:53 | 42.57134 | -87.81174 | 14112 ft | 390 kts | 350° |
| 2026-05-06 16:53 | 42.59858 | -87.81355 | 14555 ft | 394 kts | 350° |
| 2026-05-06 16:54 | 42.62604 | -87.81535 | 14998 ft | 396 kts | 350° |
| 2026-05-06 16:54 | 42.65366 | -87.81713 | 15443 ft | 399 kts | 350° |
| 2026-05-06 16:54 | 42.68174 | -87.81714 | 15806 ft | 413 kts | 1° |
| 2026-05-06 16:54 | 42.70967 | -87.80475 | 16125 ft | 435 kts | 24° |
| 2026-05-06 16:55 | 42.73324 | -87.77881 | 16648 ft | 440 kts | 46° |
| 2026-05-06 16:55 | 42.74929 | -87.74272 | 16888 ft | 454 kts | 66° |
| 2026-05-06 16:55 | 42.76003 | -87.70179 | 17144 ft | 462 kts | 71° |
| 2026-05-06 16:55 | 42.76983 | -87.65976 | 17439 ft | 468 kts | 72° |
| 2026-05-06 16:56 | 42.77980 | -87.61733 | 17814 ft | 472 kts | 71° |
| 2026-05-06 16:56 | 42.79017 | -87.57475 | 18191 ft | 475 kts | 71° |
| 2026-05-06 16:56 | 42.80090 | -87.53191 | 18532 ft | 479 kts | 70° |
| 2026-05-06 16:56 | 42.81187 | -87.48883 | 18857 ft | 483 kts | 70° |
| 2026-05-06 16:57 | 42.82299 | -87.44540 | 19192 ft | 486 kts | 70° |
| 2026-05-06 16:57 | 42.83419 | -87.40173 | 19532 ft | 489 kts | 70° |
| 2026-05-06 16:57 | 42.84547 | -87.35774 | 19863 ft | 493 kts | 70° |
| 2026-05-06 16:57 | 42.85679 | -87.31347 | 20173 ft | 496 kts | 70° |
| 2026-05-06 16:58 | 42.86812 | -87.26905 | 20523 ft | 498 kts | 70° |
| 2026-05-06 16:58 | 42.87952 | -87.22427 | 20858 ft | 501 kts | 70° |
| 2026-05-06 16:58 | 42.89098 | -87.17912 | 21177 ft | 505 kts | 71° |
| 2026-05-06 16:58 | 42.90250 | -87.13367 | 21485 ft | 508 kts | 71° |
| 2026-05-06 16:59 | 42.91308 | -87.08731 | 21795 ft | 511 kts | 76° |
| 2026-05-06 16:59 | 42.92011 | -87.03969 | 22104 ft | 513 kts | 84° |
| 2026-05-06 16:59 | 42.92341 | -86.99132 | 22418 ft | 514 kts | 89° |
| 2026-05-06 16:59 | 42.92507 | -86.94239 | 22684 ft | 517 kts | 91° |
| 2026-05-06 17:00 | 42.92631 | -86.89373 | 23023 ft | 519 kts | 91° |
| 2026-05-06 17:00 | 42.92756 | -86.84457 | 23398 ft | 520 kts | 91° |
| 2026-05-06 17:00 | 42.92892 | -86.79506 | 23698 ft | 523 kts | 91° |
| 2026-05-06 17:00 | 42.93037 | -86.74527 | 23933 ft | 525 kts | 91° |
| 2026-05-06 17:01 | 42.93187 | -86.69521 | 24195 ft | 528 kts | 91° |
| 2026-05-06 17:01 | 42.93339 | -86.64505 | 24450 ft | 530 kts | 91° |
| 2026-05-06 17:01 | 42.93492 | -86.59475 | 24714 ft | 532 kts | 91° |
| 2026-05-06 17:01 | 42.93644 | -86.54413 | 24953 ft | 534 kts | 90° |
| 2026-05-06 17:02 | 42.93794 | -86.49327 | 25251 ft | 535 kts | 90° |
| 2026-05-06 17:02 | 42.93943 | -86.44266 | 25524 ft | 536 kts | 90° |
| 2026-05-06 17:02 | 42.94092 | -86.39143 | 25766 ft | 539 kts | 90° |
| 2026-05-06 17:02 | 42.94238 | -86.34009 | 25998 ft | 541 kts | 90° |
| 2026-05-06 17:03 | 42.94383 | -86.28863 | 26222 ft | 543 kts | 90° |
| 2026-05-06 17:03 | 42.94477 | -86.25441 | 26379 ft | 545 kts | 90° |
| 2026-05-06 17:03 | 42.94619 | -86.20254 | 26607 ft | 547 kts | 90° |
| 2026-05-06 17:03 | 42.94758 | -86.15050 | 26825 ft | 549 kts | 90° |
| 2026-05-06 17:04 | 42.94895 | -86.09826 | 27070 ft | 550 kts | 90° |
| 2026-05-06 17:04 | 42.95030 | -86.04584 | 27308 ft | 552 kts | 90° |
| 2026-05-06 17:04 | 42.95164 | -85.99335 | 27534 ft | 554 kts | 90° |
| 2026-05-06 17:04 | 42.95297 | -85.94054 | 27733 ft | 557 kts | 90° |
| 2026-05-06 17:05 | 42.95428 | -85.88748 | 27934 ft | 559 kts | 90° |
| 2026-05-06 17:05 | 42.95556 | -85.83429 | 28138 ft | 561 kts | 90° |
| 2026-05-06 17:05 | 42.95682 | -85.78081 | 28431 ft | 561 kts | 90° |
| 2026-05-06 17:05 | 42.95803 | -85.72833 | 28723 ft | 560 kts | 91° |
| 2026-05-06 17:06 | 42.95924 | -85.67506 | 29015 ft | 560 kts | 91° |
| 2026-05-06 17:06 | 42.96042 | -85.62192 | 29304 ft | 560 kts | 91° |
| 2026-05-06 17:06 | 42.96157 | -85.56854 | 29536 ft | 561 kts | 91° |
| 2026-05-06 17:06 | 42.96271 | -85.51514 | 29736 ft | 563 kts | 91° |
| 2026-05-06 17:07 | 42.96381 | -85.46161 | 29942 ft | 564 kts | 91° |
| 2026-05-06 17:07 | 42.96490 | -85.40792 | 30119 ft | 565 kts | 90° |
| 2026-05-06 17:07 | 42.96593 | -85.35412 | 30316 ft | 566 kts | 90° |
| 2026-05-06 17:07 | 42.96697 | -85.30028 | 30502 ft | 566 kts | 90° |
| 2026-05-06 17:08 | 42.96800 | -85.24652 | 30655 ft | 567 kts | 90° |
| 2026-05-06 17:08 | 42.96899 | -85.19259 | 30819 ft | 567 kts | 90° |
| 2026-05-06 17:08 | 42.97025 | -85.13856 | 30987 ft | 569 kts | 88° |
| 2026-05-06 17:09 | 42.97925 | -85.03069 | 30985 ft | 571 kts | 80° |
| 2026-05-06 17:09 | 42.99825 | -84.92628 | 31005 ft | 569 kts | 72° |
| 2026-05-06 17:10 | 43.02270 | -84.82342 | 31009 ft | 568 kts | 71° |
| 2026-05-06 17:10 | 43.04724 | -84.72065 | 31007 ft | 568 kts | 71° |
| 2026-05-06 17:11 | 43.07135 | -84.61750 | 30998 ft | 567 kts | 71° |
| 2026-05-06 17:11 | 43.09512 | -84.51460 | 31008 ft | 566 kts | 72° |
| 2026-05-06 17:12 | 43.11879 | -84.41151 | 31014 ft | 567 kts | 72° |
| 2026-05-06 17:12 | 43.14241 | -84.30820 | 31012 ft | 568 kts | 72° |
| 2026-05-06 17:13 | 43.16575 | -84.20565 | 31005 ft | 567 kts | 72° |
| 2026-05-06 17:13 | 43.18914 | -84.10229 | 31008 ft | 566 kts | 72° |
| 2026-05-06 17:14 | 43.21239 | -83.99908 | 31008 ft | 567 kts | 72° |
| 2026-05-06 17:14 | 43.23146 | -83.89403 | 30985 ft | 566 kts | 80° |
| 2026-05-06 17:15 | 43.24069 | -83.78702 | 31004 ft | 563 kts | 89° |
| 2026-05-06 17:15 | 43.24327 | -83.67951 | 30999 ft | 563 kts | 90° |
| 2026-05-06 17:16 | 43.24533 | -83.57192 | 30993 ft | 563 kts | 90° |
| 2026-05-06 17:16 | 43.24765 | -83.46426 | 31003 ft | 562 kts | 90° |
| 2026-05-06 17:17 | 43.25001 | -83.35785 | 30994 ft | 561 kts | 90° |
| 2026-05-06 17:17 | 43.25230 | -83.25067 | 30980 ft | 561 kts | 90° |
| 2026-05-06 17:18 | 43.25448 | -83.14340 | 30953 ft | 561 kts | 90° |
| 2026-05-06 17:18 | 43.25655 | -83.03643 | 30974 ft | 559 kts | 91° |
| 2026-05-06 17:19 | 43.25850 | -82.92976 | 30977 ft | 559 kts | 91° |
| 2026-05-06 17:19 | 43.26041 | -82.82302 | 30979 ft | 559 kts | 89° |
| 2026-05-06 17:20 | 43.27304 | -82.71736 | 30975 ft | 562 kts | 72° |
| 2026-05-06 17:20 | 43.30461 | -82.61965 | 30998 ft | 558 kts | 56° |
| 2026-05-06 17:21 | 43.34751 | -82.53093 | 31010 ft | 556 kts | 52° |
| 2026-05-06 17:21 | 43.39118 | -82.44308 | 31040 ft | 556 kts | 53° |
| 2026-05-06 17:22 | 43.43435 | -82.35440 | 31006 ft | 558 kts | 53° |
| 2026-05-06 17:22 | 43.47699 | -82.26584 | 31008 ft | 558 kts | 53° |
| 2026-05-06 17:23 | 43.51993 | -82.17617 | 31005 ft | 558 kts | 53° |
| 2026-05-06 17:23 | 43.56264 | -82.08662 | 31047 ft | 558 kts | 53° |
| 2026-05-06 17:24 | 43.60532 | -81.99685 | 31019 ft | 559 kts | 53° |
| 2026-05-06 17:24 | 43.64800 | -81.90683 | 31005 ft | 560 kts | 53° |
| 2026-05-06 17:25 | 43.69058 | -81.81675 | 31001 ft | 560 kts | 53° |
| 2026-05-06 17:25 | 43.73285 | -81.72705 | 31017 ft | 560 kts | 53° |
| 2026-05-06 17:26 | 43.77537 | -81.63656 | 30957 ft | 561 kts | 53° |
| 2026-05-06 17:26 | 43.81774 | -81.54606 | 30974 ft | 559 kts | 53° |
| 2026-05-06 17:27 | 43.86002 | -81.45549 | 30971 ft | 559 kts | 54° |
| 2026-05-06 17:27 | 43.90222 | -81.36481 | 31004 ft | 559 kts | 54° |
| 2026-05-06 17:28 | 43.94427 | -81.27423 | 30955 ft | 562 kts | 54° |
| 2026-05-06 17:28 | 43.98640 | -81.18308 | 30957 ft | 559 kts | 54° |
| 2026-05-06 17:29 | 44.02836 | -81.09207 | 30958 ft | 559 kts | 54° |
| 2026-05-06 17:29 | 44.07038 | -81.00065 | 30974 ft | 559 kts | 54° |
| 2026-05-06 17:30 | 44.11232 | -80.90915 | 30920 ft | 561 kts | 54° |
| 2026-05-06 17:30 | 44.15414 | -80.81753 | 30942 ft | 559 kts | 54° |
| 2026-05-06 17:31 | 44.19559 | -80.72649 | 30944 ft | 559 kts | 54° |
| 2026-05-06 17:31 | 44.23723 | -80.63473 | 30978 ft | 559 kts | 54° |
| 2026-05-06 17:32 | 44.27893 | -80.54260 | 30950 ft | 561 kts | 55° |
| 2026-05-06 17:32 | 44.32044 | -80.45048 | 30940 ft | 558 kts | 55° |
| 2026-05-06 17:33 | 44.36175 | -80.35857 | 30943 ft | 557 kts | 55° |
| 2026-05-06 17:33 | 44.40297 | -80.26657 | 30949 ft | 557 kts | 55° |
| 2026-05-06 17:34 | 44.44398 | -80.17475 | 30956 ft | 558 kts | 55° |
| 2026-05-06 17:34 | 44.48500 | -80.08264 | 30945 ft | 555 kts | 55° |
| 2026-05-06 17:35 | 44.52577 | -79.99074 | 30946 ft | 555 kts | 55° |
| 2026-05-06 17:35 | 44.56656 | -79.89850 | 30961 ft | 556 kts | 55° |
| 2026-05-06 17:36 | 44.62776 | -79.75960 | 30911 ft | 558 kts | 56° |
| 2026-05-06 17:36 | 44.66837 | -79.66709 | 30930 ft | 554 kts | 56° |
| 2026-05-06 17:37 | 44.70878 | -79.57467 | 30928 ft | 554 kts | 56° |
| 2026-05-06 17:37 | 44.74923 | -79.48186 | 30925 ft | 557 kts | 56° |
| 2026-05-06 17:38 | 44.78949 | -79.38922 | 30913 ft | 558 kts | 56° |
| 2026-05-06 17:38 | 44.82984 | -79.29604 | 30873 ft | 558 kts | 56° |
| 2026-05-06 17:39 | 44.87009 | -79.20280 | 30899 ft | 554 kts | 56° |
| 2026-05-06 17:39 | 44.91011 | -79.10981 | 30911 ft | 555 kts | 56° |
| 2026-05-06 17:40 | 44.95013 | -79.01650 | 30905 ft | 555 kts | 56° |
| 2026-05-06 17:40 | 44.99009 | -78.92303 | 30904 ft | 555 kts | 57° |
| 2026-05-06 17:41 | 45.02997 | -78.82944 | 30888 ft | 555 kts | 57° |
| 2026-05-06 17:41 | 45.06952 | -78.73637 | 30900 ft | 554 kts | 57° |
| 2026-05-06 17:42 | 45.10922 | -78.64251 | 30898 ft | 555 kts | 57° |
| 2026-05-06 17:42 | 45.14884 | -78.54855 | 30894 ft | 555 kts | 57° |
| 2026-05-06 17:43 | 45.18840 | -78.45445 | 30896 ft | 555 kts | 57° |
| 2026-05-06 17:43 | 45.22805 | -78.35989 | 30880 ft | 557 kts | 57° |